sensor_id;sensor_type;location;lat;lon;timestamp;temperature;humidity
48648;DHT22;34437;-33.956;151.076;2022-09-09T00:04:19;20.20;68.00
48648;DHT22;34437;-33.956;151.076;2022-09-09T00:07:04;20.20;68.30
48648;DHT22;34437;-33.956;151.076;2022-09-09T00:09:31;20.20;68.30
48648;DHT22;34437;-33.956;151.076;2022-09-09T00:12:02;20.20;68.50
48648;DHT22;34437;-33.956;151.076;2022-09-09T00:17:03;20.20;68.20
48648;DHT22;34437;-33.956;151.076;2022-09-09T00:19:41;20.20;68.30
48648;DHT22;34437;-33.956;151.076;2022-09-09T00:22:12;20.20;68.20
48648;DHT22;34437;-33.956;151.076;2022-09-09T00:25:29;20.20;68.30
48648;DHT22;34437;-33.956;151.076;2022-09-09T00:27:40;20.20;68.20
48648;DHT22;34437;-33.956;151.076;2022-09-09T00:32:31;20.20;68.30
48648;DHT22;34437;-33.956;151.076;2022-09-09T00:37:31;20.20;68.20
48648;DHT22;34437;-33.956;151.076;2022-09-09T00:39:59;20.20;68.30
48648;DHT22;34437;-33.956;151.076;2022-09-09T00:43:14;20.20;68.20
48648;DHT22;34437;-33.956;151.076;2022-09-09T00:56:38;20.30;68.70
48648;DHT22;34437;-33.956;151.076;2022-09-09T01:01:26;20.30;69.00
48648;DHT22;34437;-33.956;151.076;2022-09-09T01:03:58;20.40;68.80
48648;DHT22;34437;-33.956;151.076;2022-09-09T01:06:35;20.40;68.90
48648;DHT22;34437;-33.956;151.076;2022-09-09T01:09:07;20.40;68.90
48648;DHT22;34437;-33.956;151.076;2022-09-09T01:12:02;20.40;68.90
48648;DHT22;34437;-33.956;151.076;2022-09-09T01:14:39;20.50;69.00
48648;DHT22;34437;-33.956;151.076;2022-09-09T01:18:25;20.50;69.00
48648;DHT22;34437;-33.956;151.076;2022-09-09T01:20:20;20.50;69.00
48648;DHT22;34437;-33.956;151.076;2022-09-09T01:23:26;20.50;69.00
48648;DHT22;34437;-33.956;151.076;2022-09-09T01:28:10;20.60;68.70
48648;DHT22;34437;-33.956;151.076;2022-09-09T01:30:37;20.70;68.50
48648;DHT22;34437;-33.956;151.076;2022-09-09T01:33:00;20.70;68.40
48648;DHT22;34437;-33.956;151.076;2022-09-09T01:35:50;20.70;68.60
48648;DHT22;34437;-33.956;151.076;2022-09-09T01:38:16;20.80;68.50
48648;DHT22;34437;-33.956;151.076;2022-09-09T01:40:39;20.80;68.60
48648;DHT22;34437;-33.956;151.076;2022-09-09T01:43:02;20.80;68.70
48648;DHT22;34437;-33.956;151.076;2022-09-09T01:45:25;20.90;68.70
48648;DHT22;34437;-33.956;151.076;2022-09-09T01:47:48;20.90;68.70
48648;DHT22;34437;-33.956;151.076;2022-09-09T01:50:14;20.90;68.00
48648;DHT22;34437;-33.956;151.076;2022-09-09T01:52:37;20.90;67.60
48648;DHT22;34437;-33.956;151.076;2022-09-09T01:55:00;20.90;67.60
48648;DHT22;34437;-33.956;151.076;2022-09-09T01:57:39;20.80;67.50
48648;DHT22;34437;-33.956;151.076;2022-09-09T02:00:08;20.80;67.40
48648;DHT22;34437;-33.956;151.076;2022-09-09T02:05:39;20.70;67.50
48648;DHT22;34437;-33.956;151.076;2022-09-09T02:11:23;20.80;68.40
48648;DHT22;34437;-33.956;151.076;2022-09-09T02:13:48;20.90;68.50
48648;DHT22;34437;-33.956;151.076;2022-09-09T02:16:34;20.90;68.70
48648;DHT22;34437;-33.956;151.076;2022-09-09T02:21:28;21.00;68.60
48648;DHT22;34437;-33.956;151.076;2022-09-09T02:23:53;21.00;68.40
48648;DHT22;34437;-33.956;151.076;2022-09-09T02:26:19;21.00;68.40
48648;DHT22;34437;-33.956;151.076;2022-09-09T02:28:43;21.10;68.40
48648;DHT22;34437;-33.956;151.076;2022-09-09T02:31:06;21.10;68.40
48648;DHT22;34437;-33.956;151.076;2022-09-09T02:33:42;21.10;68.30
48648;DHT22;34437;-33.956;151.076;2022-09-09T02:36:06;21.20;68.30
48648;DHT22;34437;-33.956;151.076;2022-09-09T02:38:33;21.20;68.20
48648;DHT22;34437;-33.956;151.076;2022-09-09T02:40:58;21.20;68.20
48648;DHT22;34437;-33.956;151.076;2022-09-09T02:43:20;21.20;68.30
48648;DHT22;34437;-33.956;151.076;2022-09-09T02:46:03;21.30;68.10
48648;DHT22;34437;-33.956;151.076;2022-09-09T02:48:51;21.20;67.90
48648;DHT22;34437;-33.956;151.076;2022-09-09T02:51:50;21.30;68.20
48648;DHT22;34437;-33.956;151.076;2022-09-09T02:56:44;21.30;68.00
48648;DHT22;34437;-33.956;151.076;2022-09-09T02:59:08;21.40;68.00
48648;DHT22;34437;-33.956;151.076;2022-09-09T03:01:31;21.40;68.00
48648;DHT22;34437;-33.956;151.076;2022-09-09T03:03:54;21.40;68.00
48648;DHT22;34437;-33.956;151.076;2022-09-09T03:06:17;21.50;67.90
48648;DHT22;34437;-33.956;151.076;2022-09-09T03:08:39;21.50;67.90
48648;DHT22;34437;-33.956;151.076;2022-09-09T03:11:02;21.50;68.00
48648;DHT22;34437;-33.956;151.076;2022-09-09T03:13:25;21.50;67.90
48648;DHT22;34437;-33.956;151.076;2022-09-09T03:15:48;21.60;67.90
48648;DHT22;34437;-33.956;151.076;2022-09-09T03:18:11;21.60;67.80
48648;DHT22;34437;-33.956;151.076;2022-09-09T03:20:34;21.60;67.70
48648;DHT22;34437;-33.956;151.076;2022-09-09T03:22:58;21.70;67.70
48648;DHT22;34437;-33.956;151.076;2022-09-09T03:25:22;21.70;67.60
48648;DHT22;34437;-33.956;151.076;2022-09-09T03:27:48;21.70;67.60
48648;DHT22;34437;-33.956;151.076;2022-09-09T03:30:11;21.70;67.50
48648;DHT22;34437;-33.956;151.076;2022-09-09T03:32:34;21.70;67.50
48648;DHT22;34437;-33.956;151.076;2022-09-09T03:34:56;21.70;67.60
48648;DHT22;34437;-33.956;151.076;2022-09-09T03:37:19;21.70;67.70
48648;DHT22;34437;-33.956;151.076;2022-09-09T03:39:45;21.70;67.80
48648;DHT22;34437;-33.956;151.076;2022-09-09T03:42:08;21.70;67.70
48648;DHT22;34437;-33.956;151.076;2022-09-09T03:44:30;21.70;67.70
48648;DHT22;34437;-33.956;151.076;2022-09-09T03:46:53;21.80;67.70
48648;DHT22;34437;-33.956;151.076;2022-09-09T03:49:16;21.80;67.70
48648;DHT22;34437;-33.956;151.076;2022-09-09T03:51:38;21.80;67.70
48648;DHT22;34437;-33.956;151.076;2022-09-09T03:54:02;21.80;67.60
48648;DHT22;34437;-33.956;151.076;2022-09-09T03:56:26;21.90;67.70
48648;DHT22;34437;-33.956;151.076;2022-09-09T03:58:49;21.90;67.80
48648;DHT22;34437;-33.956;151.076;2022-09-09T04:01:13;21.90;67.50
48648;DHT22;34437;-33.956;151.076;2022-09-09T04:03:36;22.00;67.70
48648;DHT22;34437;-33.956;151.076;2022-09-09T04:06:02;22.10;67.70
48648;DHT22;34437;-33.956;151.076;2022-09-09T04:08:26;22.10;67.40
48648;DHT22;34437;-33.956;151.076;2022-09-09T04:10:49;22.10;67.30
48648;DHT22;34437;-33.956;151.076;2022-09-09T04:13:12;22.20;67.10
48648;DHT22;34437;-33.956;151.076;2022-09-09T04:15:36;22.20;67.00
48648;DHT22;34437;-33.956;151.076;2022-09-09T04:17:59;22.20;67.00
48648;DHT22;34437;-33.956;151.076;2022-09-09T04:20:22;22.20;67.40
48648;DHT22;34437;-33.956;151.076;2022-09-09T04:22:45;22.20;67.30
48648;DHT22;34437;-33.956;151.076;2022-09-09T04:25:08;22.30;67.90
48648;DHT22;34437;-33.956;151.076;2022-09-09T04:27:30;22.40;66.70
48648;DHT22;34437;-33.956;151.076;2022-09-09T04:29:53;22.50;65.80
48648;DHT22;34437;-33.956;151.076;2022-09-09T04:32:17;22.50;65.00
48648;DHT22;34437;-33.956;151.076;2022-09-09T04:34:39;22.60;65.10
48648;DHT22;34437;-33.956;151.076;2022-09-09T04:37:03;22.60;65.30
48648;DHT22;34437;-33.956;151.076;2022-09-09T04:39:25;22.70;65.20
48648;DHT22;34437;-33.956;151.076;2022-09-09T04:41:48;22.80;65.10
48648;DHT22;34437;-33.956;151.076;2022-09-09T04:44:11;22.80;65.20
48648;DHT22;34437;-33.956;151.076;2022-09-09T04:46:34;22.90;65.40
48648;DHT22;34437;-33.956;151.076;2022-09-09T04:48:56;22.90;66.00
48648;DHT22;34437;-33.956;151.076;2022-09-09T04:51:19;22.90;65.50
48648;DHT22;34437;-33.956;151.076;2022-09-09T04:53:42;22.90;65.50
48648;DHT22;34437;-33.956;151.076;2022-09-09T04:58:28;23.00;65.90
48648;DHT22;34437;-33.956;151.076;2022-09-09T05:00:50;23.10;65.80
48648;DHT22;34437;-33.956;151.076;2022-09-09T05:03:13;23.20;65.60
48648;DHT22;34437;-33.956;151.076;2022-09-09T05:05:36;23.30;65.40
48648;DHT22;34437;-33.956;151.076;2022-09-09T05:08:03;23.40;65.30
48648;DHT22;34437;-33.956;151.076;2022-09-09T05:10:26;23.40;65.00
48648;DHT22;34437;-33.956;151.076;2022-09-09T05:12:55;23.50;65.00
48648;DHT22;34437;-33.956;151.076;2022-09-09T05:15:18;23.50;65.00
48648;DHT22;34437;-33.956;151.076;2022-09-09T05:17:42;23.40;65.00
48648;DHT22;34437;-33.956;151.076;2022-09-09T05:20:05;23.40;65.10
48648;DHT22;34437;-33.956;151.076;2022-09-09T05:22:28;23.40;65.20
48648;DHT22;34437;-33.956;151.076;2022-09-09T05:24:52;23.30;65.20
48648;DHT22;34437;-33.956;151.076;2022-09-09T05:27:14;23.30;65.40
48648;DHT22;34437;-33.956;151.076;2022-09-09T05:29:37;23.30;65.60
48648;DHT22;34437;-33.956;151.076;2022-09-09T05:32:00;23.30;65.70
48648;DHT22;34437;-33.956;151.076;2022-09-09T05:34:23;23.30;65.70
48648;DHT22;34437;-33.956;151.076;2022-09-09T05:36:45;23.20;65.80
48648;DHT22;34437;-33.956;151.076;2022-09-09T05:39:08;23.20;65.90
48648;DHT22;34437;-33.956;151.076;2022-09-09T05:41:33;23.20;65.90
48648;DHT22;34437;-33.956;151.076;2022-09-09T05:43:57;23.20;65.90
48648;DHT22;34437;-33.956;151.076;2022-09-09T05:46:24;23.10;66.00
48648;DHT22;34437;-33.956;151.076;2022-09-09T05:48:50;23.10;66.10
48648;DHT22;34437;-33.956;151.076;2022-09-09T05:51:15;23.10;66.10
48648;DHT22;34437;-33.956;151.076;2022-09-09T05:53:39;23.10;66.10
48648;DHT22;34437;-33.956;151.076;2022-09-09T05:56:06;23.10;66.10
48648;DHT22;34437;-33.956;151.076;2022-09-09T05:58:29;23.10;66.10
48648;DHT22;34437;-33.956;151.076;2022-09-09T06:00:52;23.10;66.00
48648;DHT22;34437;-33.956;151.076;2022-09-09T06:03:15;23.10;66.10
48648;DHT22;34437;-33.956;151.076;2022-09-09T06:05:38;23.20;66.50
48648;DHT22;34437;-33.956;151.076;2022-09-09T06:08:01;23.30;67.00
48648;DHT22;34437;-33.956;151.076;2022-09-09T06:10:24;23.40;65.90
48648;DHT22;34437;-33.956;151.076;2022-09-09T06:12:46;23.40;65.60
48648;DHT22;34437;-33.956;151.076;2022-09-09T06:15:09;23.60;65.70
48648;DHT22;34437;-33.956;151.076;2022-09-09T06:17:35;23.70;65.40
48648;DHT22;34437;-33.956;151.076;2022-09-09T06:19:58;23.80;64.70
48648;DHT22;34437;-33.956;151.076;2022-09-09T06:22:20;23.90;64.10
48648;DHT22;34437;-33.956;151.076;2022-09-09T06:24:43;24.00;63.30
48648;DHT22;34437;-33.956;151.076;2022-09-09T06:27:06;24.10;63.10
48648;DHT22;34437;-33.956;151.076;2022-09-09T06:29:29;24.10;63.20
48648;DHT22;34437;-33.956;151.076;2022-09-09T06:31:51;24.20;62.80
48648;DHT22;34437;-33.956;151.076;2022-09-09T06:34:14;24.10;62.70
48648;DHT22;34437;-33.956;151.076;2022-09-09T06:36:38;24.20;63.40
48648;DHT22;34437;-33.956;151.076;2022-09-09T06:39:01;24.20;63.10
48648;DHT22;34437;-33.956;151.076;2022-09-09T06:41:29;24.30;62.90
48648;DHT22;34437;-33.956;151.076;2022-09-09T06:43:52;24.40;62.70
48648;DHT22;34437;-33.956;151.076;2022-09-09T06:48:41;24.60;62.20
48648;DHT22;34437;-33.956;151.076;2022-09-09T06:51:04;24.60;61.40
48648;DHT22;34437;-33.956;151.076;2022-09-09T06:53:27;24.60;60.80
48648;DHT22;34437;-33.956;151.076;2022-09-09T06:55:50;24.50;60.60
48648;DHT22;34437;-33.956;151.076;2022-09-09T06:58:13;24.40;61.40
48648;DHT22;34437;-33.956;151.076;2022-09-09T07:00:36;24.30;61.50
48648;DHT22;34437;-33.956;151.076;2022-09-09T07:03:01;24.20;62.00
48648;DHT22;34437;-33.956;151.076;2022-09-09T07:05:24;24.20;62.10
48648;DHT22;34437;-33.956;151.076;2022-09-09T07:07:47;24.20;62.40
48648;DHT22;34437;-33.956;151.076;2022-09-09T07:10:10;24.20;62.30
48648;DHT22;34437;-33.956;151.076;2022-09-09T07:12:33;24.20;62.30
48648;DHT22;34437;-33.956;151.076;2022-09-09T07:14:55;24.40;62.40
48648;DHT22;34437;-33.956;151.076;2022-09-09T07:17:18;24.60;61.60
48648;DHT22;34437;-33.956;151.076;2022-09-09T07:19:40;24.60;61.50
48648;DHT22;34437;-33.956;151.076;2022-09-09T07:22:04;24.40;61.50
48648;DHT22;34437;-33.956;151.076;2022-09-09T07:24:28;24.30;61.70
48648;DHT22;34437;-33.956;151.076;2022-09-09T07:26:51;24.20;62.10
48648;DHT22;34437;-33.956;151.076;2022-09-09T07:29:13;24.10;62.50
48648;DHT22;34437;-33.956;151.076;2022-09-09T07:31:38;24.00;63.10
48648;DHT22;34437;-33.956;151.076;2022-09-09T07:34:02;23.90;63.40
48648;DHT22;34437;-33.956;151.076;2022-09-09T07:36:29;23.80;63.70
48648;DHT22;34437;-33.956;151.076;2022-09-09T07:39:00;23.80;63.70
48648;DHT22;34437;-33.956;151.076;2022-09-09T07:41:44;23.70;63.80
48648;DHT22;34437;-33.956;151.076;2022-09-09T07:44:12;23.70;64.40
48648;DHT22;34437;-33.956;151.076;2022-09-09T07:46:36;23.70;64.60
48648;DHT22;34437;-33.956;151.076;2022-09-09T07:49:00;23.70;64.90
48648;DHT22;34437;-33.956;151.076;2022-09-09T07:51:35;23.60;64.90
48648;DHT22;34437;-33.956;151.076;2022-09-09T07:54:00;23.60;64.80
48648;DHT22;34437;-33.956;151.076;2022-09-09T07:56:24;23.60;64.90
48648;DHT22;34437;-33.956;151.076;2022-09-09T07:58:48;23.60;65.20
48648;DHT22;34437;-33.956;151.076;2022-09-09T08:01:22;23.50;65.20
48648;DHT22;34437;-33.956;151.076;2022-09-09T08:03:46;23.50;64.70
48648;DHT22;34437;-33.956;151.076;2022-09-09T08:06:09;23.50;64.10
48648;DHT22;34437;-33.956;151.076;2022-09-09T08:08:33;23.50;63.60
48648;DHT22;34437;-33.956;151.076;2022-09-09T08:11:13;23.40;63.20
48648;DHT22;34437;-33.956;151.076;2022-09-09T08:13:38;23.30;63.10
48648;DHT22;34437;-33.956;151.076;2022-09-09T08:16:04;23.20;63.20
48648;DHT22;34437;-33.956;151.076;2022-09-09T08:18:27;23.20;63.40
48648;DHT22;34437;-33.956;151.076;2022-09-09T08:20:50;23.10;63.30
48648;DHT22;34437;-33.956;151.076;2022-09-09T08:23:13;23.00;63.40
48648;DHT22;34437;-33.956;151.076;2022-09-09T08:25:36;23.00;63.60
48648;DHT22;34437;-33.956;151.076;2022-09-09T08:27:58;22.90;63.70
48648;DHT22;34437;-33.956;151.076;2022-09-09T08:30:21;22.90;63.70
48648;DHT22;34437;-33.956;151.076;2022-09-09T08:32:44;22.80;63.80
48648;DHT22;34437;-33.956;151.076;2022-09-09T08:35:07;22.70;63.90
48648;DHT22;34437;-33.956;151.076;2022-09-09T08:37:33;22.70;64.00
48648;DHT22;34437;-33.956;151.076;2022-09-09T08:39:56;22.70;64.30
48648;DHT22;34437;-33.956;151.076;2022-09-09T08:50:22;22.50;64.50
48648;DHT22;34437;-33.956;151.076;2022-09-09T08:53:09;22.40;64.60
48648;DHT22;34437;-33.956;151.076;2022-09-09T09:10:58;22.20;65.60
48648;DHT22;34437;-33.956;151.076;2022-09-09T09:13:28;22.10;65.70
48648;DHT22;34437;-33.956;151.076;2022-09-09T09:16:03;22.10;65.90
48648;DHT22;34437;-33.956;151.076;2022-09-09T09:18:29;22.10;66.00
48648;DHT22;34437;-33.956;151.076;2022-09-09T09:23:25;22.00;66.00
48648;DHT22;34437;-33.956;151.076;2022-09-09T09:25:48;22.00;66.10
48648;DHT22;34437;-33.956;151.076;2022-09-09T09:28:18;21.90;66.10
48648;DHT22;34437;-33.956;151.076;2022-09-09T09:31:03;21.90;66.30
48648;DHT22;34437;-33.956;151.076;2022-09-09T09:35:50;21.90;66.40
48648;DHT22;34437;-33.956;151.076;2022-09-09T09:38:24;21.90;66.40
48648;DHT22;34437;-33.956;151.076;2022-09-09T09:40:51;21.90;66.50
48648;DHT22;34437;-33.956;151.076;2022-09-09T09:43:24;21.80;66.40
48648;DHT22;34437;-33.956;151.076;2022-09-09T09:45:48;21.70;66.50
48648;DHT22;34437;-33.956;151.076;2022-09-09T09:48:12;21.70;66.50
48648;DHT22;34437;-33.956;151.076;2022-09-09T09:50:35;21.70;66.60
48648;DHT22;34437;-33.956;151.076;2022-09-09T09:53:17;21.70;66.50
48648;DHT22;34437;-33.956;151.076;2022-09-09T09:56:05;21.60;66.50
48648;DHT22;34437;-33.956;151.076;2022-09-09T09:58:31;21.60;66.50
48648;DHT22;34437;-33.956;151.076;2022-09-09T10:00:55;21.60;66.50
48648;DHT22;34437;-33.956;151.076;2022-09-09T10:03:30;21.60;66.50
48648;DHT22;34437;-33.956;151.076;2022-09-09T10:05:53;21.50;66.40
48648;DHT22;34437;-33.956;151.076;2022-09-09T10:08:17;21.50;66.50
48648;DHT22;34437;-33.956;151.076;2022-09-09T10:19:00;21.40;66.40
48648;DHT22;34437;-33.956;151.076;2022-09-09T10:27:49;21.40;66.40
48648;DHT22;34437;-33.956;151.076;2022-09-09T10:30:20;21.30;66.30
48648;DHT22;34437;-33.956;151.076;2022-09-09T10:32:53;21.30;66.10
48648;DHT22;34437;-33.956;151.076;2022-09-09T10:35:34;21.30;66.40
48648;DHT22;34437;-33.956;151.076;2022-09-09T10:38:17;21.30;66.10
48648;DHT22;34437;-33.956;151.076;2022-09-09T10:43:35;21.20;66.10
48648;DHT22;34437;-33.956;151.076;2022-09-09T10:54:23;21.20;66.10
48648;DHT22;34437;-33.956;151.076;2022-09-09T10:56:55;21.10;66.00
48648;DHT22;34437;-33.956;151.076;2022-09-09T10:59:22;21.10;66.10
48648;DHT22;34437;-33.956;151.076;2022-09-09T11:04:38;21.00;65.90
48648;DHT22;34437;-33.956;151.076;2022-09-09T11:07:07;21.00;66.10
48648;DHT22;34437;-33.956;151.076;2022-09-09T11:09:35;21.00;66.20
48648;DHT22;34437;-33.956;151.076;2022-09-09T11:12:01;21.00;66.20
48648;DHT22;34437;-33.956;151.076;2022-09-09T11:17:03;21.00;66.50
48648;DHT22;34437;-33.956;151.076;2022-09-09T11:19:55;20.90;66.30
48648;DHT22;34437;-33.956;151.076;2022-09-09T11:25:26;20.90;66.40
48648;DHT22;34437;-33.956;151.076;2022-09-09T11:33:15;20.80;66.20
48648;DHT22;34437;-33.956;151.076;2022-09-09T11:36:01;20.80;66.30
48648;DHT22;34437;-33.956;151.076;2022-09-09T11:38:28;20.80;66.40
48648;DHT22;34437;-33.956;151.076;2022-09-09T11:41:03;20.80;66.20
48648;DHT22;34437;-33.956;151.076;2022-09-09T11:43:43;20.80;66.30
48648;DHT22;34437;-33.956;151.076;2022-09-09T11:46:06;20.80;66.20
48648;DHT22;34437;-33.956;151.076;2022-09-09T11:48:37;20.70;66.30
48648;DHT22;34437;-33.956;151.076;2022-09-09T11:51:05;20.70;66.30
48648;DHT22;34437;-33.956;151.076;2022-09-09T11:53:29;20.70;66.30
48648;DHT22;34437;-33.956;151.076;2022-09-09T11:56:10;20.70;66.20
48648;DHT22;34437;-33.956;151.076;2022-09-09T11:58:40;20.60;66.30
48648;DHT22;34437;-33.956;151.076;2022-09-09T12:01:55;20.60;66.10
48648;DHT22;34437;-33.956;151.076;2022-09-09T12:14:42;20.60;66.20
48648;DHT22;34437;-33.956;151.076;2022-09-09T12:17:27;20.50;66.00
48648;DHT22;34437;-33.956;151.076;2022-09-09T12:20:12;20.50;66.00
48648;DHT22;34437;-33.956;151.076;2022-09-09T12:33:37;20.40;65.80
48648;DHT22;34437;-33.956;151.076;2022-09-09T12:36:05;20.40;66.20
48648;DHT22;34437;-33.956;151.076;2022-09-09T12:38:35;20.40;66.00
48648;DHT22;34437;-33.956;151.076;2022-09-09T12:40:59;20.30;66.20
48648;DHT22;34437;-33.956;151.076;2022-09-09T12:43:24;20.30;66.20
48648;DHT22;34437;-33.956;151.076;2022-09-09T12:45:48;20.30;66.30
48648;DHT22;34437;-33.956;151.076;2022-09-09T12:48:13;20.30;66.20
48648;DHT22;34437;-33.956;151.076;2022-09-09T12:50:52;20.30;66.30
48648;DHT22;34437;-33.956;151.076;2022-09-09T12:53:37;20.30;66.30
48648;DHT22;34437;-33.956;151.076;2022-09-09T12:56:04;20.30;66.30
48648;DHT22;34437;-33.956;151.076;2022-09-09T12:58:30;20.30;66.30
48648;DHT22;34437;-33.956;151.076;2022-09-09T13:00:56;20.20;66.40
48648;DHT22;34437;-33.956;151.076;2022-09-09T13:03:20;20.20;66.40
48648;DHT22;34437;-33.956;151.076;2022-09-09T13:05:43;20.20;66.40
48648;DHT22;34437;-33.956;151.076;2022-09-09T13:08:11;20.20;66.30
48648;DHT22;34437;-33.956;151.076;2022-09-09T13:13:19;20.20;66.20
48648;DHT22;34437;-33.956;151.076;2022-09-09T13:15:53;20.20;66.30
48648;DHT22;34437;-33.956;151.076;2022-09-09T13:18:18;20.10;66.40
48648;DHT22;34437;-33.956;151.076;2022-09-09T13:20:48;20.10;66.30
48648;DHT22;34437;-33.956;151.076;2022-09-09T13:23:12;20.10;66.10
48648;DHT22;34437;-33.956;151.076;2022-09-09T13:25:35;20.10;66.00
48648;DHT22;34437;-33.956;151.076;2022-09-09T13:28:05;20.10;66.00
48648;DHT22;34437;-33.956;151.076;2022-09-09T13:30:32;20.10;65.90
48648;DHT22;34437;-33.956;151.076;2022-09-09T13:35:35;20.00;65.90
48648;DHT22;34437;-33.956;151.076;2022-09-09T13:37:59;20.00;65.90
48648;DHT22;34437;-33.956;151.076;2022-09-09T13:40:29;20.00;66.10
48648;DHT22;34437;-33.956;151.076;2022-09-09T13:42:56;20.00;66.20
48648;DHT22;34437;-33.956;151.076;2022-09-09T13:45:22;20.00;65.90
48648;DHT22;34437;-33.956;151.076;2022-09-09T13:47:48;20.00;66.00
48648;DHT22;34437;-33.956;151.076;2022-09-09T13:52:43;19.90;66.10
48648;DHT22;34437;-33.956;151.076;2022-09-09T13:55:08;19.90;66.20
48648;DHT22;34437;-33.956;151.076;2022-09-09T13:57:31;19.90;66.30
48648;DHT22;34437;-33.956;151.076;2022-09-09T13:59:54;19.90;66.50
48648;DHT22;34437;-33.956;151.076;2022-09-09T14:02:17;19.90;66.90
48648;DHT22;34437;-33.956;151.076;2022-09-09T14:04:40;19.90;66.90
48648;DHT22;34437;-33.956;151.076;2022-09-09T14:07:03;19.90;67.00
48648;DHT22;34437;-33.956;151.076;2022-09-09T14:09:26;19.90;67.10
48648;DHT22;34437;-33.956;151.076;2022-09-09T14:11:48;20.00;67.20
48648;DHT22;34437;-33.956;151.076;2022-09-09T14:14:11;20.00;67.30
48648;DHT22;34437;-33.956;151.076;2022-09-09T14:16:34;20.00;67.30
48648;DHT22;34437;-33.956;151.076;2022-09-09T14:18:57;19.90;67.30
48648;DHT22;34437;-33.956;151.076;2022-09-09T14:21:20;20.00;67.40
48648;DHT22;34437;-33.956;151.076;2022-09-09T14:23:43;20.00;67.40
48648;DHT22;34437;-33.956;151.076;2022-09-09T14:26:06;19.90;67.30
48648;DHT22;34437;-33.956;151.076;2022-09-09T14:28:29;19.90;67.60
48648;DHT22;34437;-33.956;151.076;2022-09-09T14:30:52;20.00;67.60
48648;DHT22;34437;-33.956;151.076;2022-09-09T14:33:16;20.00;67.40
48648;DHT22;34437;-33.956;151.076;2022-09-09T14:35:39;19.90;66.90
48648;DHT22;34437;-33.956;151.076;2022-09-09T14:38:04;19.90;66.60
48648;DHT22;34437;-33.956;151.076;2022-09-09T14:40:27;19.90;67.00
48648;DHT22;34437;-33.956;151.076;2022-09-09T14:42:50;19.90;67.30
48648;DHT22;34437;-33.956;151.076;2022-09-09T14:45:13;19.90;67.50
48648;DHT22;34437;-33.956;151.076;2022-09-09T14:47:35;19.90;67.60
48648;DHT22;34437;-33.956;151.076;2022-09-09T14:49:59;19.90;67.70
48648;DHT22;34437;-33.956;151.076;2022-09-09T14:52:24;19.90;67.80
48648;DHT22;34437;-33.956;151.076;2022-09-09T14:54:47;19.90;67.90
48648;DHT22;34437;-33.956;151.076;2022-09-09T14:57:11;19.90;68.00
48648;DHT22;34437;-33.956;151.076;2022-09-09T14:59:33;19.90;68.00
48648;DHT22;34437;-33.956;151.076;2022-09-09T15:01:56;19.90;68.20
48648;DHT22;34437;-33.956;151.076;2022-09-09T15:04:19;19.90;68.30
48648;DHT22;34437;-33.956;151.076;2022-09-09T15:06:42;19.90;68.40
48648;DHT22;34437;-33.956;151.076;2022-09-09T15:09:08;19.90;68.50
48648;DHT22;34437;-33.956;151.076;2022-09-09T15:11:35;19.90;68.60
48648;DHT22;34437;-33.956;151.076;2022-09-09T15:14:01;19.90;68.60
48648;DHT22;34437;-33.956;151.076;2022-09-09T15:16:27;19.90;68.60
48648;DHT22;34437;-33.956;151.076;2022-09-09T15:18:52;19.90;69.00
48648;DHT22;34437;-33.956;151.076;2022-09-09T15:21:18;19.90;69.00
48648;DHT22;34437;-33.956;151.076;2022-09-09T15:23:41;19.90;69.00
48648;DHT22;34437;-33.956;151.076;2022-09-09T15:26:05;19.90;68.80
48648;DHT22;34437;-33.956;151.076;2022-09-09T15:28:28;19.90;68.80
48648;DHT22;34437;-33.956;151.076;2022-09-09T15:30:52;20.00;68.80
48648;DHT22;34437;-33.956;151.076;2022-09-09T15:33:15;19.90;68.70
48648;DHT22;34437;-33.956;151.076;2022-09-09T15:35:38;19.90;68.80
48648;DHT22;34437;-33.956;151.076;2022-09-09T15:38:02;19.90;68.90
48648;DHT22;34437;-33.956;151.076;2022-09-09T15:40:26;19.90;68.90
48648;DHT22;34437;-33.956;151.076;2022-09-09T15:42:49;19.90;68.90
48648;DHT22;34437;-33.956;151.076;2022-09-09T15:45:11;19.90;69.00
48648;DHT22;34437;-33.956;151.076;2022-09-09T15:47:34;19.90;69.20
48648;DHT22;34437;-33.956;151.076;2022-09-09T15:49:57;19.90;68.00
48648;DHT22;34437;-33.956;151.076;2022-09-09T15:52:19;19.90;67.60
48648;DHT22;34437;-33.956;151.076;2022-09-09T15:54:42;19.90;67.80
48648;DHT22;34437;-33.956;151.076;2022-09-09T15:57:07;19.90;67.90
48648;DHT22;34437;-33.956;151.076;2022-09-09T15:59:31;19.90;68.20
48648;DHT22;34437;-33.956;151.076;2022-09-09T16:01:56;19.90;68.20
48648;DHT22;34437;-33.956;151.076;2022-09-09T16:04:19;19.90;68.30
48648;DHT22;34437;-33.956;151.076;2022-09-09T16:06:45;19.90;68.50
48648;DHT22;34437;-33.956;151.076;2022-09-09T16:09:08;19.90;68.60
48648;DHT22;34437;-33.956;151.076;2022-09-09T16:11:34;19.90;68.60
48648;DHT22;34437;-33.956;151.076;2022-09-09T16:13:58;19.90;68.60
48648;DHT22;34437;-33.956;151.076;2022-09-09T16:16:22;19.90;68.70
48648;DHT22;34437;-33.956;151.076;2022-09-09T16:18:47;19.90;68.60
48648;DHT22;34437;-33.956;151.076;2022-09-09T16:21:14;19.90;68.50
48648;DHT22;34437;-33.956;151.076;2022-09-09T16:23:37;19.90;68.50
48648;DHT22;34437;-33.956;151.076;2022-09-09T16:26:01;19.90;68.50
48648;DHT22;34437;-33.956;151.076;2022-09-09T16:28:24;19.80;68.50
48648;DHT22;34437;-33.956;151.076;2022-09-09T16:30:47;19.80;68.40
48648;DHT22;34437;-33.956;151.076;2022-09-09T16:33:09;19.80;68.30
48648;DHT22;34437;-33.956;151.076;2022-09-09T16:35:35;19.80;68.50
48648;DHT22;34437;-33.956;151.076;2022-09-09T16:37:58;19.80;68.50
48648;DHT22;34437;-33.956;151.076;2022-09-09T16:40:20;19.80;68.60
48648;DHT22;34437;-33.956;151.076;2022-09-09T16:42:43;19.80;68.60
48648;DHT22;34437;-33.956;151.076;2022-09-09T16:45:06;19.80;69.20
48648;DHT22;34437;-33.956;151.076;2022-09-09T16:47:28;19.80;68.50
48648;DHT22;34437;-33.956;151.076;2022-09-09T16:49:51;19.80;68.50
48648;DHT22;34437;-33.956;151.076;2022-09-09T16:52:13;19.80;68.50
48648;DHT22;34437;-33.956;151.076;2022-09-09T16:54:36;19.80;68.50
48648;DHT22;34437;-33.956;151.076;2022-09-09T16:56:59;19.80;68.80
48648;DHT22;34437;-33.956;151.076;2022-09-09T16:59:22;19.70;68.60
48648;DHT22;34437;-33.956;151.076;2022-09-09T17:01:46;19.70;68.70
48648;DHT22;34437;-33.956;151.076;2022-09-09T17:04:21;19.70;68.70